Terminal Aerodrome Forecast
Issued by NWS

Home | Current Version | Previous Version | Graphics & Text | Print | Product List | Glossary On
Versions: 1 2 3 4 5 6 7 8 9 10 11 12 13 14 15 16 17 18 19 20 21 22 23 24 25 26 27
404
FTUS43 KLOT 250532
TAFORD
TAF
KORD 250532Z 2506/2612 32011KT P6SM -RA BKN012 OVC020
      TEMPO 2506/2507 2SM -RASN BR
     FM250700 30014G21KT 2SM -SN OVC015
     FM251200 30016G24KT 4SM -SN BR OVC015
     FM251600 29015G23KT P6SM OVC020
     FM252300 29012G18KT P6SM BKN035
     FM260200 28008KT P6SM SCT100
     FM260800 23006KT P6SM SCT250=

USA.gov is the U.S. government's official web portal to all federal, state and local government web resources and services.